createdAt,value
2022-12-09T00:00:01.747Z,401.8
2022-12-09T00:05:07.345Z,423.9
2022-12-09T00:10:01.931Z,430.4
2022-12-09T00:15:01.927Z,414.5
2022-12-09T00:20:01.583Z,429.6
2022-12-09T00:25:01.785Z,423.7
2022-12-09T00:30:01.397Z,423.2
2022-12-09T00:35:01.909Z,412.4
2022-12-09T00:40:01.573Z,407.1
2022-12-09T00:45:01.506Z,401.2
2022-12-09T00:50:07.323Z,410.6
2022-12-09T00:55:03.052Z,399.3
2022-12-09T01:00:01.900Z,395.0
2022-12-09T01:05:01.747Z,395.2
2022-12-09T01:10:01.310Z,418.4
2022-12-09T01:15:01.660Z,411.0
2022-12-09T01:20:01.689Z,422.4
2022-12-09T01:25:01.557Z,418.0
2022-12-09T01:30:01.536Z,435.4
2022-12-09T01:40:01.646Z,427.4
2022-12-09T01:45:02.098Z,436.6
2022-12-09T02:05:02.514Z,496.4
2022-12-09T02:10:01.838Z,442.0
2022-12-09T02:15:01.992Z,418.3
2022-12-09T02:20:02.002Z,419.8
2022-12-09T02:45:01.888Z,410.8
2022-12-09T02:50:01.423Z,427.4
2022-12-09T02:55:01.565Z,394.3
2022-12-09T03:00:01.047Z,364.5
2022-12-09T03:05:01.687Z,351.0
2022-12-09T03:25:01.929Z,381.4
2022-12-09T03:30:01.828Z,297.2
2022-12-09T03:35:01.971Z,275.1
2022-12-09T03:40:13.591Z,288.2
2022-12-09T03:45:02.139Z,274.8
2022-12-09T03:50:01.678Z,245.3
2022-12-09T03:55:01.867Z,250.9
2022-12-09T04:00:02.131Z,242.5
2022-12-09T04:05:02.309Z,212.9
2022-12-09T04:10:01.932Z,204.8
2022-12-09T04:15:02.038Z,210.5
2022-12-09T04:20:01.973Z,203.2
2022-12-09T04:25:02.925Z,207.2
2022-12-09T04:30:02.362Z,214.0
2022-12-09T04:35:02.244Z,219.5
2022-12-09T04:40:01.704Z,202.3
2022-12-09T04:45:02.284Z,200.5
2022-12-09T04:50:02.104Z,207.4
2022-12-09T04:55:07.841Z,237.3
2022-12-09T05:00:02.419Z,263.1
2022-12-09T05:05:02.831Z,305.4
2022-12-09T05:10:02.647Z,352.8
2022-12-09T05:15:02.700Z,399.0
2022-12-09T05:20:02.101Z,410.4
2022-12-09T05:25:02.446Z,439.2
2022-12-09T05:30:03.364Z,432.2
2022-12-09T05:35:02.620Z,428.5
2022-12-09T05:40:02.493Z,405.6
2022-12-09T05:45:03.020Z,391.9
2022-12-09T05:50:08.714Z,376.8
2022-12-09T05:55:07.256Z,391.4
2022-12-09T06:00:03.079Z,367.1
2022-12-09T06:05:02.990Z,365.2
2022-12-09T06:10:08.205Z,346.0
2022-12-09T06:15:02.127Z,320.6
2022-12-09T06:20:03.911Z,297.8
2022-12-09T06:25:01.750Z,286.8
2022-12-09T06:30:02.477Z,257.2
2022-12-09T06:35:02.883Z,259.6
2022-12-09T06:40:02.633Z,273.7
2022-12-09T06:45:02.470Z,281.1
2022-12-09T06:50:08.083Z,316.1
2022-12-09T06:55:02.217Z,355.0
2022-12-09T07:00:02.718Z,371.4
2022-12-09T07:05:02.876Z,386.8
2022-12-09T07:15:02.610Z,388.4
2022-12-09T07:20:07.721Z,376.5
2022-12-09T07:25:02.208Z,375.3
2022-12-09T07:30:02.736Z,366.4
2022-12-09T07:35:08.311Z,373.6
2022-12-09T07:40:02.437Z,363.8
2022-12-09T07:45:02.235Z,365.4
2022-12-09T07:50:07.554Z,351.2
2022-12-09T07:55:02.347Z,327.2
2022-12-09T08:00:02.062Z,320.0
2022-12-09T08:05:03.119Z,332.7
2022-12-09T08:10:02.821Z,346.7
2022-12-09T08:15:02.366Z,366.9
2022-12-09T08:20:04.052Z,377.7
2022-12-09T08:25:02.771Z,397.2
2022-12-09T08:30:02.554Z,391.2
2022-12-09T08:35:02.820Z,405.0
2022-12-09T08:40:02.059Z,411.4
2022-12-09T08:45:03.997Z,433.2
2022-12-09T08:50:04.105Z,426.1
2022-12-09T08:55:02.853Z,429.2
2022-12-09T09:00:08.168Z,419.4
2022-12-09T09:05:02.271Z,421.2
2022-12-09T09:10:02.541Z,407.8
2022-12-09T09:15:02.154Z,412.3
2022-12-09T09:20:02.512Z,405.0
2022-12-09T09:25:02.363Z,405.5
2022-12-09T09:35:02.374Z,410.2
2022-12-09T09:40:02.433Z,402.6
2022-12-09T09:45:02.315Z,401.0
2022-12-09T09:50:02.448Z,376.9
2022-12-09T10:05:03.141Z,247.4
2022-12-09T10:10:03.023Z,251.1
2022-12-09T10:15:02.540Z,252.3
2022-12-09T10:20:02.694Z,257.5
2022-12-09T10:25:02.457Z,276.4
2022-12-09T10:30:02.546Z,278.1
2022-12-09T10:35:07.917Z,277.8
2022-12-09T10:40:02.285Z,277.1
2022-12-09T10:45:02.352Z,274.0
2022-12-09T10:50:02.881Z,255.1
2022-12-09T10:55:03.266Z,278.8
2022-12-09T11:00:02.978Z,278.4
2022-12-09T11:05:02.485Z,282.1
2022-12-09T11:25:02.719Z,326.0
2022-12-09T11:50:07.619Z,407.0
2022-12-09T11:55:02.225Z,396.0
2022-12-09T12:00:01.129Z,393.8
2022-12-09T12:05:01.471Z,371.4
2022-12-09T12:35:02.087Z,332.5
2022-12-09T12:55:01.799Z,319.4
2022-12-09T13:05:01.955Z,291.0
2022-12-09T13:10:06.996Z,291.8
2022-12-09T13:15:01.524Z,286.4
2022-12-09T13:20:01.509Z,271.7
2022-12-09T13:25:02.594Z,265.3
2022-12-09T13:50:01.119Z,275.1
2022-12-09T13:55:01.104Z,258.7
2022-12-09T14:05:01.519Z,283.1
2022-12-09T14:10:00.926Z,276.6
2022-12-09T14:15:01.045Z,273.8
2022-12-09T14:35:02.030Z,252.0
2022-12-09T14:55:06.902Z,270.2
2022-12-09T15:00:01.161Z,285.2
2022-12-09T15:05:01.961Z,292.1
2022-12-09T15:10:01.210Z,295.9
2022-12-09T15:35:01.972Z,424.0
2022-12-09T15:55:01.406Z,310.2
2022-12-09T16:00:01.497Z,270.3
2022-12-09T16:05:01.666Z,263.7
2022-12-09T16:10:01.291Z,246.6
2022-12-09T16:15:01.396Z,240.2
2022-12-09T16:20:01.400Z,231.6
2022-12-09T16:35:01.244Z,254.8
2022-12-09T16:55:01.619Z,270.4
2022-12-09T17:00:01.446Z,374.0
2022-12-09T17:05:01.861Z,338.1
2022-12-09T17:10:01.363Z,335.6
2022-12-09T17:15:01.536Z,380.1
2022-12-09T17:20:01.432Z,429.8
2022-12-09T17:25:01.480Z,408.8
2022-12-09T17:30:01.357Z,464.1
2022-12-09T17:35:01.597Z,477.6
2022-12-09T17:40:04.141Z,478.8
2022-12-09T17:45:01.439Z,443.2
2022-12-09T17:50:01.734Z,481.3
2022-12-09T17:55:01.535Z,449.0
2022-12-09T18:00:01.478Z,484.0
2022-12-09T18:05:01.507Z,496.6
2022-12-09T18:10:01.373Z,505.1
2022-12-09T18:15:02.612Z,511.2
2022-12-09T18:20:01.435Z,519.1
2022-12-09T18:25:01.530Z,517.6
2022-12-09T18:30:01.988Z,511.9
2022-12-09T18:35:01.832Z,525.6
2022-12-09T18:40:01.677Z,528.6
2022-12-09T18:45:01.481Z,532.5
2022-12-09T18:50:01.647Z,528.0
2022-12-09T18:55:06.450Z,525.6
2022-12-09T19:00:01.407Z,542.6
2022-12-09T19:05:01.533Z,533.8
2022-12-09T19:10:01.311Z,524.2
2022-12-09T19:15:01.527Z,526.6
2022-12-09T19:20:01.337Z,494.2
2022-12-09T19:25:01.444Z,495.0
2022-12-09T19:30:01.436Z,501.4
2022-12-09T19:35:01.531Z,517.7
2022-12-09T19:40:01.383Z,518.6
2022-12-09T19:45:06.611Z,508.7
2022-12-09T19:50:01.292Z,492.7
2022-12-09T19:55:02.971Z,490.6
2022-12-09T20:05:01.662Z,461.2
2022-12-09T20:10:07.419Z,442.4
2022-12-09T20:25:02.362Z,612.6
2022-12-09T20:30:01.659Z,583.3
2022-12-09T20:35:13.379Z,597.1
2022-12-09T20:40:01.617Z,600.5
2022-12-09T20:45:01.617Z,578.2
2022-12-09T20:50:02.073Z,578.8
2022-12-09T20:55:03.152Z,577.5
2022-12-09T21:00:01.604Z,576.4
2022-12-09T21:05:01.851Z,534.1
2022-12-09T21:10:01.630Z,554.8
2022-12-09T21:15:02.398Z,546.8
2022-12-09T21:20:01.528Z,546.6
2022-12-09T21:25:01.652Z,524.9
2022-12-09T21:30:01.627Z,525.4
2022-12-09T21:35:01.963Z,515.0
2022-12-09T21:40:01.578Z,460.2
2022-12-09T21:45:01.870Z,428.7
2022-12-09T21:50:02.627Z,443.2
2022-12-09T21:55:02.253Z,445.3
2022-12-09T22:00:02.014Z,440.6
2022-12-09T22:05:01.633Z,452.3
2022-12-09T22:10:01.605Z,465.3
2022-12-09T22:15:01.584Z,454.6
2022-12-09T22:25:01.622Z,435.7
2022-12-09T22:30:01.640Z,452.0
2022-12-09T22:35:02.548Z,469.9
2022-12-09T22:40:01.503Z,429.1
2022-12-09T22:45:06.693Z,438.3
2022-12-09T22:50:01.575Z,438.7
2022-12-09T22:55:01.567Z,419.0
2022-12-09T23:00:01.796Z,403.8
2022-12-09T23:05:02.627Z,415.9
2022-12-09T23:10:01.888Z,394.8
2022-12-09T23:15:06.704Z,353.2
2022-12-09T23:20:01.513Z,338.4
2022-12-09T23:25:01.642Z,309.9
2022-12-09T23:30:01.481Z,283.1
2022-12-09T23:35:07.864Z,287.5
2022-12-09T23:40:01.473Z,262.2
2022-12-09T23:45:01.622Z,280.0
2022-12-09T23:50:01.481Z,277.7
2022-12-09T23:55:04.863Z,299.4
